createdAt,value
2022-11-22T00:01:13.841Z,79.40
2022-11-22T00:03:50.345Z,76.30
2022-11-22T00:06:22.879Z,77.00
2022-11-22T00:08:54.449Z,72.30
2022-11-22T00:11:30.044Z,66.10
2022-11-22T00:14:05.363Z,64.80
2022-11-22T00:16:41.181Z,65.30
2022-11-22T00:19:12.491Z,60.40
2022-11-22T00:21:42.873Z,50.70
2022-11-22T00:24:18.726Z,53.00
2022-11-22T00:26:49.848Z,55.30
2022-11-22T00:29:18.847Z,56.90
2022-11-22T00:31:49.388Z,53.80
2022-11-22T00:34:24.061Z,55.20
2022-11-22T00:37:03.789Z,55.90
2022-11-22T00:40:02.868Z,58.20
2022-11-22T00:42:48.065Z,57.90
2022-11-22T00:45:29.317Z,53.00
2022-11-22T00:48:26.381Z,51.50
2022-11-22T00:51:07.639Z,47.80
2022-11-22T00:53:49.980Z,49.70
2022-11-22T00:56:27.273Z,46.10
2022-11-22T00:58:56.366Z,52.10
2022-11-22T01:01:27.142Z,46.80
2022-11-22T01:04:01.017Z,42.40
2022-11-22T01:06:34.909Z,42.30
2022-11-22T01:09:11.858Z,41.30
2022-11-22T01:11:46.598Z,42.50
2022-11-22T01:14:46.296Z,47.80
2022-11-22T01:17:34.874Z,40.70
2022-11-22T01:20:37.102Z,38.80
2022-11-22T01:23:12.087Z,39.10
2022-11-22T01:25:46.105Z,42.30
2022-11-22T01:28:15.364Z,40.30
2022-11-22T01:30:58.318Z,37.80
2022-11-22T01:33:54.223Z,38.00
2022-11-22T01:36:30.906Z,36.40
2022-11-22T01:42:00.203Z,36.70
2022-11-22T01:44:35.046Z,37.80
2022-11-22T01:47:25.445Z,41.00
2022-11-22T01:50:17.831Z,32.20
2022-11-22T01:53:03.668Z,33.10
2022-11-22T01:55:35.138Z,33.90
2022-11-22T01:58:10.268Z,35.80
2022-11-22T02:00:49.691Z,32.60
2022-11-22T02:03:37.045Z,37.30
2022-11-22T02:06:20.748Z,37.80
2022-11-22T02:09:07.528Z,40.80
2022-11-22T02:11:48.002Z,34.40
2022-11-22T02:14:29.191Z,37.00
2022-11-22T02:17:25.926Z,35.30
2022-11-22T02:19:59.219Z,38.60
2022-11-22T02:22:59.115Z,35.80
2022-11-22T02:25:55.261Z,35.80
2022-11-22T02:28:29.066Z,41.40
2022-11-22T02:31:04.144Z,34.00
2022-11-22T02:33:48.135Z,35.30
2022-11-22T02:36:20.361Z,33.70
2022-11-22T02:38:54.017Z,30.60
2022-11-22T02:41:27.356Z,32.20
2022-11-22T02:44:02.122Z,32.20
2022-11-22T02:46:59.428Z,31.30
2022-11-22T02:49:35.537Z,32.70
2022-11-22T02:52:08.179Z,30.90
2022-11-22T02:54:42.026Z,28.60
2022-11-22T02:57:17.819Z,30.20
2022-11-22T02:59:47.018Z,28.10
2022-11-22T03:02:22.362Z,30.80
2022-11-22T03:05:04.967Z,31.80
2022-11-22T03:07:39.087Z,31.30
2022-11-22T03:10:30.448Z,33.90
2022-11-22T03:13:03.853Z,29.80
2022-11-22T03:15:52.195Z,31.00
2022-11-22T03:18:26.840Z,33.20
2022-11-22T03:21:08.211Z,34.20
2022-11-22T03:23:37.783Z,31.80
2022-11-22T03:26:31.222Z,37.50
2022-11-22T03:29:16.932Z,35.20
2022-11-22T03:32:11.495Z,32.10
2022-11-22T03:34:47.798Z,34.80
2022-11-22T03:37:30.286Z,35.10
2022-11-22T03:42:32.854Z,40.00
2022-11-22T03:45:04.744Z,40.50
2022-11-22T03:47:35.202Z,43.30
2022-11-22T03:50:18.400Z,54.60
2022-11-22T03:52:59.656Z,51.30
2022-11-22T03:55:46.962Z,84.60
2022-11-22T03:58:18.533Z,54.00
2022-11-22T04:00:49.987Z,54.30
2022-11-22T04:03:21.606Z,154.20
2022-11-22T04:05:54.499Z,102.80
2022-11-22T04:08:23.789Z,178.00
2022-11-22T04:10:52.862Z,192.10
2022-11-22T04:13:22.049Z,217.40
2022-11-22T04:15:53.620Z,554.30
2022-11-22T04:18:23.556Z,480.40
2022-11-22T04:21:11.265Z,294.60
2022-11-22T04:23:44.283Z,629.00
2022-11-22T04:26:13.256Z,315.30
2022-11-22T04:29:08.600Z,459.30
2022-11-22T04:31:49.566Z,175.40
2022-11-22T04:34:18.373Z,177.00
2022-11-22T04:36:47.298Z,65.30
2022-11-22T04:39:16.344Z,107.30
2022-11-22T04:41:45.294Z,77.10
2022-11-22T04:44:32.746Z,102.20
2022-11-22T04:47:01.529Z,73.20
2022-11-22T04:49:30.690Z,67.30
2022-11-22T04:52:18.574Z,66.00
2022-11-22T04:54:47.497Z,59.80
2022-11-22T04:57:16.361Z,62.80
2022-11-22T04:59:45.299Z,70.60
2022-11-22T05:02:14.192Z,67.90
2022-11-22T05:04:47.632Z,72.20
2022-11-22T05:07:25.880Z,67.40
2022-11-22T05:10:00.472Z,72.10
2022-11-22T05:12:47.103Z,76.50
2022-11-22T05:15:40.189Z,74.80
2022-11-22T05:18:20.474Z,66.50
2022-11-22T05:20:59.404Z,69.40
2022-11-22T05:23:49.310Z,64.60
2022-11-22T05:26:22.101Z,67.90
2022-11-22T05:28:57.992Z,71.90
2022-11-22T05:31:28.070Z,72.60
2022-11-22T05:34:08.726Z,70.70
2022-11-22T05:36:44.065Z,67.80
2022-11-22T05:39:27.006Z,64.20
2022-11-22T05:45:15.349Z,80.00
2022-11-22T05:47:56.323Z,64.90
2022-11-22T05:50:34.547Z,62.60
2022-11-22T05:53:26.479Z,61.80
2022-11-22T05:57:08.424Z,71.70
2022-11-22T05:59:36.808Z,74.40
2022-11-22T06:02:13.340Z,69.10
2022-11-22T06:04:44.773Z,70.60
2022-11-22T06:07:50.164Z,80.10
2022-11-22T06:10:25.923Z,96.60
2022-11-22T06:12:55.936Z,89.80
2022-11-22T06:15:35.340Z,71.80
2022-11-22T06:18:08.272Z,85.90
2022-11-22T06:20:49.377Z,86.30
2022-11-22T06:23:23.468Z,80.40
2022-11-22T06:26:10.978Z,84.60
2022-11-22T06:28:46.957Z,86.40
2022-11-22T06:31:25.968Z,82.90
2022-11-22T06:34:13.320Z,89.20
2022-11-22T06:36:42.805Z,88.70
2022-11-22T06:39:21.012Z,102.30
2022-11-22T06:41:55.555Z,85.50
2022-11-22T06:44:24.822Z,79.40
2022-11-22T06:46:57.069Z,86.40
2022-11-22T06:49:28.496Z,81.70
2022-11-22T06:52:01.004Z,86.40
2022-11-22T06:54:37.893Z,89.90
2022-11-22T06:57:09.424Z,87.30
2022-11-22T06:59:38.325Z,124.30
2022-11-22T07:02:12.631Z,89.30
2022-11-22T07:05:02.380Z,82.50
2022-11-22T07:07:30.849Z,91.10
2022-11-22T07:10:02.645Z,81.00
2022-11-22T07:12:31.741Z,90.10
2022-11-22T07:15:07.614Z,80.80
2022-11-22T07:17:37.115Z,79.10
2022-11-22T07:20:07.531Z,76.80
2022-11-22T07:22:36.643Z,71.40
2022-11-22T07:25:09.791Z,63.30
2022-11-22T07:27:40.152Z,69.30
2022-11-22T07:30:25.949Z,76.80
2022-11-22T07:33:02.407Z,69.40
2022-11-22T07:35:36.979Z,70.10
2022-11-22T07:38:09.579Z,77.50
2022-11-22T07:40:47.412Z,63.90
2022-11-22T07:43:18.778Z,61.70
2022-11-22T07:45:50.408Z,57.20
2022-11-22T07:48:24.310Z,65.40
2022-11-22T07:50:58.205Z,64.90
2022-11-22T07:53:29.968Z,50.90
2022-11-22T07:56:07.335Z,53.90
2022-11-22T07:58:40.351Z,52.30
2022-11-22T08:01:15.356Z,51.40
2022-11-22T08:03:50.266Z,49.20
2022-11-22T08:06:19.469Z,45.70
2022-11-22T08:08:57.249Z,51.20
2022-11-22T08:11:41.113Z,50.70
2022-11-22T08:14:12.511Z,48.30
2022-11-22T08:16:41.810Z,50.90
2022-11-22T08:19:17.968Z,53.20
2022-11-22T08:21:58.109Z,59.50
2022-11-22T08:24:30.086Z,46.80
2022-11-22T08:26:59.305Z,54.30
2022-11-22T08:29:29.441Z,62.70
2022-11-22T08:31:58.577Z,57.30
2022-11-22T08:34:27.616Z,55.30
2022-11-22T08:36:56.700Z,44.40
2022-11-22T08:39:33.932Z,50.30
2022-11-22T08:42:08.006Z,52.10
2022-11-22T08:44:46.470Z,53.30
2022-11-22T08:47:17.120Z,55.70
2022-11-22T08:49:46.231Z,48.90
2022-11-22T08:52:17.678Z,57.60
2022-11-22T08:54:56.888Z,52.30
2022-11-22T08:57:27.382Z,52.30
2022-11-22T08:59:56.497Z,54.00
2022-11-22T09:02:49.183Z,52.00
2022-11-22T09:05:15.817Z,52.50
2022-11-22T09:10:33.709Z,49.30
2022-11-22T09:13:04.955Z,59.70
2022-11-22T09:15:41.290Z,53.00
2022-11-22T09:18:14.806Z,55.70
2022-11-22T09:20:46.653Z,57.60
2022-11-22T09:23:20.037Z,53.90
2022-11-22T09:26:03.461Z,60.90
2022-11-22T09:28:36.099Z,63.70
2022-11-22T09:31:16.232Z,59.40
2022-11-22T09:33:51.964Z,66.30
2022-11-22T09:36:41.709Z,66.40
2022-11-22T09:39:10.838Z,63.50
2022-11-22T09:42:17.587Z,69.50
2022-11-22T09:45:12.915Z,76.80
2022-11-22T09:48:47.551Z,64.70
2022-11-22T09:51:22.993Z,69.10
2022-11-22T09:54:25.267Z,66.40
2022-11-22T09:57:04.240Z,59.20
2022-11-22T09:59:42.721Z,64.10
2022-11-22T10:02:35.756Z,61.80
2022-11-22T10:05:51.417Z,67.80
2022-11-22T10:09:20.644Z,66.10
2022-11-22T10:12:03.931Z,62.40
2022-11-22T10:15:16.330Z,64.60
2022-11-22T10:17:58.535Z,73.70
2022-11-22T10:20:35.271Z,75.30
2022-11-22T10:23:15.290Z,66.10
2022-11-22T10:26:13.129Z,65.90
2022-11-22T10:29:23.252Z,61.60
2022-11-22T10:32:25.428Z,69.00
2022-11-22T10:35:14.324Z,57.60
2022-11-22T10:38:17.921Z,58.60
2022-11-22T10:41:33.951Z,66.90
2022-11-22T10:48:18.833Z,58.70
2022-11-22T10:51:21.146Z,65.20
2022-11-22T10:54:33.226Z,62.70
2022-11-22T10:57:45.373Z,63.80
2022-11-22T11:00:38.010Z,80.30
2022-11-22T11:03:40.152Z,75.70
2022-11-22T11:06:29.470Z,67.80
2022-11-22T11:12:35.413Z,70.70
2022-11-22T11:15:42.997Z,69.90
2022-11-22T11:18:47.453Z,75.20
2022-11-22T11:21:30.230Z,65.70
2022-11-22T11:24:15.826Z,66.40
2022-11-22T11:27:00.656Z,71.10
2022-11-22T11:29:39.346Z,70.40
2022-11-22T11:32:31.167Z,68.40
2022-11-22T11:35:28.849Z,66.90
2022-11-22T11:38:46.954Z,64.60
2022-11-22T11:41:41.918Z,66.10
2022-11-22T11:44:40.246Z,63.50
2022-11-22T11:47:20.092Z,61.00
2022-11-22T11:50:04.648Z,65.20
2022-11-22T11:52:51.688Z,67.10
2022-11-22T11:55:32.848Z,67.70
2022-11-22T11:58:35.422Z,67.50
2022-11-22T12:01:13.719Z,65.90
2022-11-22T12:03:55.821Z,70.40
2022-11-22T12:06:32.167Z,68.20
2022-11-22T12:09:30.350Z,64.10
2022-11-22T12:12:40.693Z,67.30
2022-11-22T12:15:24.021Z,71.80
2022-11-22T12:18:44.208Z,67.40
2022-11-22T12:21:50.083Z,78.00
2022-11-22T12:25:09.195Z,76.30
2022-11-22T12:27:40.527Z,64.50
2022-11-22T12:30:22.682Z,65.70
2022-11-22T12:33:05.772Z,60.40
2022-11-22T12:35:48.720Z,61.00
2022-11-22T12:38:27.687Z,62.40
2022-11-22T12:41:03.058Z,63.40
2022-11-22T12:43:56.388Z,64.60
2022-11-22T12:46:51.322Z,64.90
2022-11-22T12:49:59.756Z,59.00
2022-11-22T12:52:39.981Z,62.50
2022-11-22T12:55:24.192Z,61.10
2022-11-22T12:58:28.106Z,63.00
2022-11-22T13:01:12.191Z,61.50
2022-11-22T13:04:10.850Z,66.10
2022-11-22T13:06:51.865Z,74.20
2022-11-22T13:09:33.655Z,67.70
2022-11-22T13:12:16.782Z,68.50
2022-11-22T13:14:55.317Z,67.50
2022-11-22T13:17:27.369Z,69.00
2022-11-22T13:23:20.601Z,66.30
2022-11-22T13:26:34.638Z,68.10
2022-11-22T13:29:20.952Z,65.50
2022-11-22T13:32:23.166Z,69.40
2022-11-22T13:35:14.071Z,75.70
2022-11-22T13:37:51.964Z,78.80
2022-11-22T13:40:46.060Z,69.20
2022-11-22T13:43:48.313Z,67.20
2022-11-22T13:47:04.812Z,69.40
2022-11-22T13:49:46.835Z,69.10
2022-11-22T13:52:19.859Z,71.40
2022-11-22T13:54:58.396Z,65.20
2022-11-22T13:57:35.659Z,67.60
2022-11-22T14:00:15.765Z,76.10
2022-11-22T14:03:21.977Z,76.60
2022-11-22T14:05:53.978Z,83.30
2022-11-22T14:08:37.514Z,72.00
2022-11-22T14:11:22.000Z,67.00
2022-11-22T14:14:33.941Z,65.90
2022-11-22T14:17:15.665Z,66.90
2022-11-22T14:20:12.570Z,63.50
2022-11-22T14:22:51.433Z,63.60
2022-11-22T14:26:05.913Z,69.50
2022-11-22T14:29:08.866Z,66.90
2022-11-22T14:31:44.366Z,76.60
2022-11-22T14:34:29.748Z,73.50
2022-11-22T14:37:13.999Z,68.40
2022-11-22T14:39:53.709Z,71.10
2022-11-22T14:42:37.567Z,78.80
2022-11-22T14:45:18.602Z,74.70
2022-11-22T14:48:20.591Z,70.80
2022-11-22T14:54:39.478Z,73.90
2022-11-22T14:57:25.239Z,73.20
2022-11-22T15:00:49.790Z,71.90
2022-11-22T15:09:20.685Z,75.00
2022-11-22T15:09:23.612Z,73.20
2022-11-22T15:11:20.671Z,79.50
2022-11-22T15:58:16.288Z,84.00
2022-11-22T16:00:48.680Z,83.60
2022-11-22T16:03:27.179Z,71.40
2022-11-22T16:06:11.388Z,76.60
2022-11-22T16:09:00.145Z,75.80
2022-11-22T16:11:39.197Z,76.80
2022-11-22T16:14:47.225Z,77.20
2022-11-22T16:17:29.376Z,78.20
2022-11-22T16:20:23.288Z,84.00
2022-11-22T16:23:10.735Z,74.70
2022-11-22T16:26:25.046Z,83.40
2022-11-22T16:29:13.821Z,76.50
2022-11-22T16:31:43.070Z,75.70
2022-11-22T16:34:15.441Z,81.50
2022-11-22T16:36:46.544Z,76.80
2022-11-22T16:39:15.852Z,72.20
2022-11-22T16:41:44.898Z,78.90
2022-11-22T16:44:20.241Z,81.60
2022-11-22T16:46:52.546Z,77.60
2022-11-22T16:49:23.081Z,74.50
2022-11-22T16:52:07.419Z,73.90
2022-11-22T16:54:36.553Z,70.90
2022-11-22T16:57:20.427Z,71.40
2022-11-22T16:59:56.420Z,74.90
2022-11-22T17:02:44.036Z,73.70
2022-11-22T17:05:24.168Z,76.50
2022-11-22T17:07:57.482Z,82.90
2022-11-22T17:10:26.483Z,76.40
2022-11-22T17:12:55.589Z,88.30
2022-11-22T17:15:26.319Z,85.90
2022-11-22T17:17:55.475Z,89.80
2022-11-22T17:20:24.566Z,97.10
2022-11-22T17:22:58.179Z,93.70
2022-11-22T17:25:30.851Z,99.90
2022-11-22T17:28:13.339Z,96.00
2022-11-22T17:31:07.102Z,113.00
2022-11-22T17:33:57.006Z,116.00
2022-11-22T17:36:55.033Z,115.00
2022-11-22T17:39:30.276Z,107.40
2022-11-22T17:42:20.334Z,103.60
2022-11-22T17:44:53.267Z,91.20
2022-11-22T17:47:31.133Z,86.70
2022-11-22T17:50:06.737Z,89.80
2022-11-22T17:52:38.551Z,83.70
2022-11-22T17:55:14.243Z,82.00
2022-11-22T17:57:43.714Z,74.30
2022-11-22T18:00:14.687Z,86.80
2022-11-22T18:02:54.323Z,84.10
2022-11-22T18:05:29.751Z,82.50
2022-11-22T18:08:12.778Z,83.40
2022-11-22T18:11:04.915Z,86.90
2022-11-22T18:13:39.056Z,81.60
2022-11-22T18:16:14.021Z,79.20
2022-11-22T18:19:02.565Z,83.30
2022-11-22T18:21:33.912Z,74.60
2022-11-22T18:24:08.688Z,73.70
2022-11-22T18:26:41.396Z,71.70
2022-11-22T18:32:05.462Z,74.70
2022-11-22T18:34:42.739Z,72.70
2022-11-22T18:37:27.467Z,65.50
2022-11-22T18:40:28.031Z,68.40
2022-11-22T18:43:02.053Z,72.60
2022-11-22T18:45:37.597Z,74.60
2022-11-22T18:48:07.059Z,75.90
2022-11-22T18:50:36.454Z,79.80
2022-11-22T18:53:08.077Z,74.20
2022-11-22T18:55:37.182Z,74.10
2022-11-22T18:58:06.545Z,71.10
2022-11-22T19:00:37.392Z,73.80
2022-11-22T19:03:14.610Z,67.30
2022-11-22T19:05:48.814Z,64.00
2022-11-22T19:08:20.262Z,69.60
2022-11-22T19:11:04.384Z,67.70
2022-11-22T19:13:50.777Z,69.40
2022-11-22T19:16:28.287Z,69.40
2022-11-22T19:18:58.634Z,74.90
2022-11-22T19:21:29.922Z,72.90
2022-11-22T19:24:12.016Z,68.40
2022-11-22T19:31:52.450Z,69.00
2022-11-22T19:34:21.569Z,70.40
2022-11-22T19:37:01.724Z,74.60
2022-11-22T19:39:50.762Z,71.10
2022-11-22T19:42:34.404Z,77.70
2022-11-22T19:45:08.247Z,71.60
2022-11-22T19:50:43.065Z,71.50
2022-11-22T19:53:24.617Z,72.90
2022-11-22T19:56:23.566Z,71.00
2022-11-22T19:58:55.027Z,73.20
2022-11-22T20:01:27.261Z,78.60
2022-11-22T20:04:01.086Z,74.70
2022-11-22T20:06:38.980Z,75.00
2022-11-22T20:09:15.586Z,72.80
2022-11-22T20:11:48.011Z,72.60
2022-11-22T20:14:19.780Z,75.20
2022-11-22T20:16:49.184Z,78.50
2022-11-22T20:19:23.844Z,79.80
2022-11-22T20:21:55.898Z,79.50
2022-11-22T20:24:32.888Z,81.80
2022-11-22T20:27:02.677Z,81.70
2022-11-22T20:29:36.884Z,74.20
2022-11-22T20:32:19.720Z,73.70
2022-11-22T20:35:01.289Z,69.40
2022-11-22T20:37:54.566Z,81.80
2022-11-22T20:40:26.774Z,89.70
2022-11-22T20:43:07.981Z,82.70
2022-11-22T20:45:37.742Z,79.90
2022-11-22T20:48:14.228Z,79.10
2022-11-22T20:50:57.116Z,74.30
2022-11-22T20:53:52.392Z,76.40
2022-11-22T20:56:29.286Z,75.20
2022-11-22T20:59:28.851Z,77.70
2022-11-22T21:02:09.227Z,74.40
2022-11-22T21:04:57.545Z,73.40
2022-11-22T21:07:29.847Z,81.70
2022-11-22T21:10:00.383Z,88.00
2022-11-22T21:12:44.849Z,92.50
2022-11-22T21:15:45.505Z,95.20
2022-11-22T21:18:26.814Z,97.20
2022-11-22T21:21:09.042Z,97.40
2022-11-22T21:23:49.716Z,106.60
2022-11-22T21:26:41.435Z,108.40
2022-11-22T21:29:19.974Z,111.30
2022-11-22T21:32:10.354Z,121.20
2022-11-22T21:35:11.815Z,126.80
2022-11-22T21:37:45.279Z,113.80
2022-11-22T21:40:23.433Z,116.80
2022-11-22T21:43:40.533Z,111.60
2022-11-22T21:46:06.941Z,109.50
2022-11-22T21:48:41.759Z,101.80
2022-11-22T21:51:27.419Z,100.60
2022-11-22T21:54:34.397Z,86.20
2022-11-22T21:57:27.751Z,79.20
2022-11-22T22:00:17.539Z,85.80
2022-11-22T22:02:53.614Z,80.40
2022-11-22T22:05:35.495Z,94.00
2022-11-22T22:08:15.235Z,85.30
2022-11-22T22:11:15.704Z,78.00
2022-11-22T22:14:10.133Z,71.00
2022-11-22T22:16:52.705Z,70.90
2022-11-22T22:19:56.101Z,70.80
2022-11-22T22:22:29.995Z,75.30
2022-11-22T22:24:59.010Z,74.20
2022-11-22T22:27:42.842Z,96.70
2022-11-22T22:30:19.431Z,76.30
2022-11-22T22:33:21.693Z,74.50
2022-11-22T22:36:04.456Z,74.80
2022-11-22T22:38:46.805Z,70.80
2022-11-22T22:41:46.606Z,74.10
2022-11-22T22:44:59.371Z,76.50
2022-11-22T22:47:47.442Z,84.60
2022-11-22T22:50:35.616Z,75.30
2022-11-22T22:53:20.690Z,84.90
2022-11-22T22:56:11.377Z,72.10
2022-11-22T22:58:55.273Z,75.50
2022-11-22T23:01:31.435Z,76.10
2022-11-22T23:04:09.648Z,72.70
2022-11-22T23:06:50.555Z,76.90
2022-11-22T23:09:46.037Z,74.20
2022-11-22T23:12:22.510Z,70.30
2022-11-22T23:15:33.022Z,73.70
2022-11-22T23:18:28.565Z,73.20
2022-11-22T23:21:16.655Z,73.60
2022-11-22T23:23:54.823Z,75.50
2022-11-22T23:26:44.864Z,71.90
2022-11-22T23:29:20.771Z,70.90
2022-11-22T23:31:52.883Z,73.30
2022-11-22T23:34:43.731Z,79.90
2022-11-22T23:37:34.014Z,80.50
2022-11-22T23:40:14.678Z,71.70
2022-11-22T23:43:02.966Z,68.80
2022-11-22T23:46:07.112Z,67.00
2022-11-22T23:48:40.516Z,70.70
2022-11-22T23:51:10.311Z,73.10
2022-11-22T23:53:53.564Z,70.50
2022-11-22T23:56:28.409Z,68.80
2022-11-22T23:59:45.134Z,68.90
